sensor_id;sensor_type;location;lat;lon;timestamp;P1;durP1;ratioP1;P2;durP2;ratioP2
819;SDS011;392;48.838;2.322;2023-01-01T00:00:19;3.70;;;3.20;;
819;SDS011;392;48.838;2.322;2023-01-01T00:02:46;3.80;;;3.50;;
819;SDS011;392;48.838;2.322;2023-01-01T00:05:14;4.57;;;3.40;;
819;SDS011;392;48.838;2.322;2023-01-01T00:07:41;4.30;;;3.13;;
819;SDS011;392;48.838;2.322;2023-01-01T00:10:08;3.00;;;2.80;;
819;SDS011;392;48.838;2.322;2023-01-01T00:12:55;4.40;;;3.40;;
819;SDS011;392;48.838;2.322;2023-01-01T00:15:24;4.93;;;3.33;;
819;SDS011;392;48.838;2.322;2023-01-01T00:17:52;4.63;;;3.37;;
819;SDS011;392;48.838;2.322;2023-01-01T00:20:20;3.63;;;3.33;;
819;SDS011;392;48.838;2.322;2023-01-01T00:22:47;3.70;;;3.40;;
819;SDS011;392;48.838;2.322;2023-01-01T00:25:15;4.13;;;2.80;;
819;SDS011;392;48.838;2.322;2023-01-01T00:27:42;3.80;;;3.20;;
819;SDS011;392;48.838;2.322;2023-01-01T00:30:10;3.97;;;3.60;;
819;SDS011;392;48.838;2.322;2023-01-01T00:32:40;4.60;;;3.87;;
819;SDS011;392;48.838;2.322;2023-01-01T00:35:07;3.57;;;3.27;;
819;SDS011;392;48.838;2.322;2023-01-01T00:37:35;4.03;;;3.60;;
819;SDS011;392;48.838;2.322;2023-01-01T00:40:02;3.43;;;3.23;;
819;SDS011;392;48.838;2.322;2023-01-01T00:42:31;4.70;;;4.20;;
819;SDS011;392;48.838;2.322;2023-01-01T00:44:58;4.50;;;3.93;;
819;SDS011;392;48.838;2.322;2023-01-01T00:47:25;4.50;;;4.10;;
819;SDS011;392;48.838;2.322;2023-01-01T00:49:54;5.20;;;3.93;;
819;SDS011;392;48.838;2.322;2023-01-01T00:52:21;4.67;;;3.60;;
819;SDS011;392;48.838;2.322;2023-01-01T00:54:49;6.00;;;3.57;;
819;SDS011;392;48.838;2.322;2023-01-01T00:57:16;3.97;;;3.57;;
819;SDS011;392;48.838;2.322;2023-01-01T00:59:43;3.80;;;3.50;;
819;SDS011;392;48.838;2.322;2023-01-01T01:02:10;5.83;;;4.00;;
819;SDS011;392;48.838;2.322;2023-01-01T01:04:38;3.70;;;3.37;;
819;SDS011;392;48.838;2.322;2023-01-01T01:07:06;4.57;;;3.97;;
819;SDS011;392;48.838;2.322;2023-01-01T01:09:34;4.90;;;3.80;;
819;SDS011;392;48.838;2.322;2023-01-01T01:12:01;4.73;;;3.73;;
819;SDS011;392;48.838;2.322;2023-01-01T01:14:29;5.40;;;3.23;;
819;SDS011;392;48.838;2.322;2023-01-01T01:16:56;4.40;;;3.67;;
819;SDS011;392;48.838;2.322;2023-01-01T01:19:24;4.53;;;4.13;;
819;SDS011;392;48.838;2.322;2023-01-01T01:21:51;3.93;;;3.53;;
819;SDS011;392;48.838;2.322;2023-01-01T01:24:20;5.13;;;4.03;;
819;SDS011;392;48.838;2.322;2023-01-01T01:26:47;4.43;;;4.03;;
819;SDS011;392;48.838;2.322;2023-01-01T01:29:15;4.20;;;3.83;;
819;SDS011;392;48.838;2.322;2023-01-01T01:31:42;4.70;;;4.17;;
819;SDS011;392;48.838;2.322;2023-01-01T01:34:10;5.50;;;4.17;;
819;SDS011;392;48.838;2.322;2023-01-01T01:36:39;4.37;;;3.80;;
819;SDS011;392;48.838;2.322;2023-01-01T01:39:08;4.33;;;3.93;;
819;SDS011;392;48.838;2.322;2023-01-01T01:41:38;4.67;;;3.70;;
819;SDS011;392;48.838;2.322;2023-01-01T01:47:17;6.53;;;3.80;;
819;SDS011;392;48.838;2.322;2023-01-01T01:49:53;5.60;;;4.17;;
819;SDS011;392;48.838;2.322;2023-01-01T01:52:26;4.43;;;3.93;;
819;SDS011;392;48.838;2.322;2023-01-01T01:54:56;3.90;;;3.50;;
819;SDS011;392;48.838;2.322;2023-01-01T01:57:27;4.60;;;4.20;;
819;SDS011;392;48.838;2.322;2023-01-01T01:59:55;5.37;;;4.77;;
819;SDS011;392;48.838;2.322;2023-01-01T02:02:26;4.17;;;3.80;;
819;SDS011;392;48.838;2.322;2023-01-01T02:05:01;6.63;;;4.60;;
819;SDS011;392;48.838;2.322;2023-01-01T02:07:31;5.13;;;4.30;;
819;SDS011;392;48.838;2.322;2023-01-01T02:10:00;4.40;;;3.80;;
819;SDS011;392;48.838;2.322;2023-01-01T02:12:30;7.47;;;5.33;;
819;SDS011;392;48.838;2.322;2023-01-01T02:14:57;7.10;;;4.60;;
819;SDS011;392;48.838;2.322;2023-01-01T02:17:27;4.50;;;4.07;;
819;SDS011;392;48.838;2.322;2023-01-01T02:20:03;4.47;;;3.90;;
819;SDS011;392;48.838;2.322;2023-01-01T02:22:52;4.83;;;4.37;;
819;SDS011;392;48.838;2.322;2023-01-01T02:25:40;4.33;;;3.93;;
819;SDS011;392;48.838;2.322;2023-01-01T02:28:33;5.10;;;4.27;;
819;SDS011;392;48.838;2.322;2023-01-01T02:31:11;6.93;;;4.37;;
819;SDS011;392;48.838;2.322;2023-01-01T02:33:43;5.10;;;4.00;;
819;SDS011;392;48.838;2.322;2023-01-01T02:36:12;6.23;;;4.40;;
819;SDS011;392;48.838;2.322;2023-01-01T02:38:42;6.80;;;4.23;;
819;SDS011;392;48.838;2.322;2023-01-01T02:41:13;5.33;;;4.00;;
819;SDS011;392;48.838;2.322;2023-01-01T02:43:46;5.23;;;4.10;;
819;SDS011;392;48.838;2.322;2023-01-01T02:46:14;6.47;;;4.20;;
819;SDS011;392;48.838;2.322;2023-01-01T02:48:41;6.27;;;4.53;;
819;SDS011;392;48.838;2.322;2023-01-01T02:51:17;7.50;;;4.20;;
819;SDS011;392;48.838;2.322;2023-01-01T02:53:56;4.73;;;4.10;;
819;SDS011;392;48.838;2.322;2023-01-01T02:56:33;4.53;;;4.13;;
819;SDS011;392;48.838;2.322;2023-01-01T02:59:20;5.70;;;4.20;;
819;SDS011;392;48.838;2.322;2023-01-01T03:02:16;6.83;;;4.37;;
819;SDS011;392;48.838;2.322;2023-01-01T03:04:54;4.83;;;4.13;;
819;SDS011;392;48.838;2.322;2023-01-01T03:07:31;5.63;;;4.33;;
819;SDS011;392;48.838;2.322;2023-01-01T03:10:08;6.70;;;3.70;;
819;SDS011;392;48.838;2.322;2023-01-01T03:12:42;5.47;;;4.10;;
819;SDS011;392;48.838;2.322;2023-01-01T03:15:20;5.30;;;4.20;;
819;SDS011;392;48.838;2.322;2023-01-01T03:17:54;6.70;;;4.17;;
819;SDS011;392;48.838;2.322;2023-01-01T03:20:27;4.43;;;3.83;;
819;SDS011;392;48.838;2.322;2023-01-01T03:23:01;5.83;;;4.27;;
819;SDS011;392;48.838;2.322;2023-01-01T03:25:33;5.47;;;4.97;;
819;SDS011;392;48.838;2.322;2023-01-01T03:28:04;4.87;;;4.00;;
819;SDS011;392;48.838;2.322;2023-01-01T03:30:38;6.90;;;4.70;;
819;SDS011;392;48.838;2.322;2023-01-01T03:33:07;5.33;;;4.53;;
819;SDS011;392;48.838;2.322;2023-01-01T03:35:42;4.70;;;3.90;;
819;SDS011;392;48.838;2.322;2023-01-01T03:38:15;5.97;;;4.90;;
819;SDS011;392;48.838;2.322;2023-01-01T03:40:45;5.03;;;4.53;;
819;SDS011;392;48.838;2.322;2023-01-01T03:43:16;12.63;;;4.30;;
819;SDS011;392;48.838;2.322;2023-01-01T03:45:54;4.30;;;3.90;;
819;SDS011;392;48.838;2.322;2023-01-01T03:48:22;5.47;;;4.03;;
819;SDS011;392;48.838;2.322;2023-01-01T03:50:53;4.90;;;4.00;;
819;SDS011;392;48.838;2.322;2023-01-01T03:53:32;6.53;;;4.27;;
819;SDS011;392;48.838;2.322;2023-01-01T03:56:07;5.63;;;3.83;;
819;SDS011;392;48.838;2.322;2023-01-01T03:58:44;6.83;;;4.47;;
819;SDS011;392;48.838;2.322;2023-01-01T04:01:21;4.73;;;4.20;;
819;SDS011;392;48.838;2.322;2023-01-01T04:03:53;5.37;;;4.30;;
819;SDS011;392;48.838;2.322;2023-01-01T04:06:21;5.17;;;4.50;;
819;SDS011;392;48.838;2.322;2023-01-01T04:08:49;6.20;;;5.60;;
819;SDS011;392;48.838;2.322;2023-01-01T04:11:23;5.10;;;3.57;;
819;SDS011;392;48.838;2.322;2023-01-01T04:14:24;6.37;;;4.53;;
819;SDS011;392;48.838;2.322;2023-01-01T04:16:55;5.40;;;4.17;;
819;SDS011;392;48.838;2.322;2023-01-01T04:19:23;5.07;;;4.57;;
819;SDS011;392;48.838;2.322;2023-01-01T04:21:51;5.17;;;4.50;;
819;SDS011;392;48.838;2.322;2023-01-01T04:24:19;7.07;;;4.10;;
819;SDS011;392;48.838;2.322;2023-01-01T04:26:47;4.73;;;4.23;;
819;SDS011;392;48.838;2.322;2023-01-01T04:29:15;5.97;;;3.83;;
819;SDS011;392;48.838;2.322;2023-01-01T04:31:43;10.03;;;4.43;;
819;SDS011;392;48.838;2.322;2023-01-01T04:34:11;7.30;;;4.57;;
819;SDS011;392;48.838;2.322;2023-01-01T04:36:39;5.37;;;4.30;;
819;SDS011;392;48.838;2.322;2023-01-01T04:39:07;5.90;;;4.70;;
819;SDS011;392;48.838;2.322;2023-01-01T04:41:34;7.73;;;4.40;;
819;SDS011;392;48.838;2.322;2023-01-01T04:44:01;5.97;;;4.20;;
819;SDS011;392;48.838;2.322;2023-01-01T04:46:29;4.90;;;3.90;;
819;SDS011;392;48.838;2.322;2023-01-01T04:48:57;4.50;;;4.10;;
819;SDS011;392;48.838;2.322;2023-01-01T04:51:26;5.40;;;3.70;;
819;SDS011;392;48.838;2.322;2023-01-01T04:53:53;5.10;;;3.97;;
819;SDS011;392;48.838;2.322;2023-01-01T04:56:20;4.90;;;3.80;;
819;SDS011;392;48.838;2.322;2023-01-01T04:58:48;6.53;;;4.33;;
819;SDS011;392;48.838;2.322;2023-01-01T05:01:16;6.90;;;4.47;;
819;SDS011;392;48.838;2.322;2023-01-01T05:03:46;8.37;;;4.00;;
819;SDS011;392;48.838;2.322;2023-01-01T05:06:14;7.70;;;4.10;;
819;SDS011;392;48.838;2.322;2023-01-01T05:08:44;6.50;;;4.10;;
819;SDS011;392;48.838;2.322;2023-01-01T05:11:14;6.63;;;4.10;;
819;SDS011;392;48.838;2.322;2023-01-01T05:13:45;6.00;;;4.07;;
819;SDS011;392;48.838;2.322;2023-01-01T05:16:14;5.10;;;4.13;;
819;SDS011;392;48.838;2.322;2023-01-01T05:18:44;5.70;;;3.60;;
819;SDS011;392;48.838;2.322;2023-01-01T05:21:12;5.00;;;4.47;;
819;SDS011;392;48.838;2.322;2023-01-01T05:23:43;4.77;;;3.73;;
819;SDS011;392;48.838;2.322;2023-01-01T05:26:12;6.20;;;4.17;;
819;SDS011;392;48.838;2.322;2023-01-01T05:28:41;5.53;;;4.30;;
819;SDS011;392;48.838;2.322;2023-01-01T05:31:10;6.30;;;4.13;;
819;SDS011;392;48.838;2.322;2023-01-01T05:33:40;7.53;;;3.90;;
819;SDS011;392;48.838;2.322;2023-01-01T05:36:09;6.60;;;4.40;;
819;SDS011;392;48.838;2.322;2023-01-01T05:38:40;5.43;;;4.03;;
819;SDS011;392;48.838;2.322;2023-01-01T05:41:10;5.63;;;3.77;;
819;SDS011;392;48.838;2.322;2023-01-01T05:43:40;4.93;;;3.37;;
819;SDS011;392;48.838;2.322;2023-01-01T05:46:10;6.20;;;3.97;;
819;SDS011;392;48.838;2.322;2023-01-01T05:48:39;6.60;;;3.70;;
819;SDS011;392;48.838;2.322;2023-01-01T05:51:07;8.83;;;4.23;;
819;SDS011;392;48.838;2.322;2023-01-01T05:53:37;4.33;;;3.37;;
819;SDS011;392;48.838;2.322;2023-01-01T05:56:05;6.40;;;3.40;;
819;SDS011;392;48.838;2.322;2023-01-01T05:58:35;7.20;;;3.73;;
819;SDS011;392;48.838;2.322;2023-01-01T06:01:06;5.20;;;3.60;;
819;SDS011;392;48.838;2.322;2023-01-01T06:03:35;4.90;;;3.97;;
819;SDS011;392;48.838;2.322;2023-01-01T06:06:03;7.40;;;4.60;;
819;SDS011;392;48.838;2.322;2023-01-01T06:08:31;6.93;;;4.40;;
819;SDS011;392;48.838;2.322;2023-01-01T06:10:59;8.23;;;3.93;;
819;SDS011;392;48.838;2.322;2023-01-01T06:13:28;8.30;;;4.60;;
819;SDS011;392;48.838;2.322;2023-01-01T06:15:57;7.77;;;3.83;;
819;SDS011;392;48.838;2.322;2023-01-01T06:18:28;5.73;;;4.63;;
819;SDS011;392;48.838;2.322;2023-01-01T06:21:02;6.20;;;3.70;;
819;SDS011;392;48.838;2.322;2023-01-01T06:23:31;7.20;;;4.00;;
819;SDS011;392;48.838;2.322;2023-01-01T06:26:03;6.33;;;4.50;;
819;SDS011;392;48.838;2.322;2023-01-01T06:28:32;6.53;;;3.90;;
819;SDS011;392;48.838;2.322;2023-01-01T06:31:01;6.13;;;4.10;;
819;SDS011;392;48.838;2.322;2023-01-01T06:33:30;5.90;;;3.70;;
819;SDS011;392;48.838;2.322;2023-01-01T06:36:00;6.60;;;3.83;;
819;SDS011;392;48.838;2.322;2023-01-01T06:38:29;6.57;;;3.97;;
819;SDS011;392;48.838;2.322;2023-01-01T06:40:58;7.57;;;4.20;;
819;SDS011;392;48.838;2.322;2023-01-01T06:43:28;6.47;;;4.23;;
819;SDS011;392;48.838;2.322;2023-01-01T06:45:58;5.80;;;3.27;;
819;SDS011;392;48.838;2.322;2023-01-01T06:48:29;8.80;;;4.50;;
819;SDS011;392;48.838;2.322;2023-01-01T06:51:03;5.70;;;3.70;;
819;SDS011;392;48.838;2.322;2023-01-01T06:53:32;5.83;;;3.77;;
819;SDS011;392;48.838;2.322;2023-01-01T06:56:00;7.47;;;4.30;;
819;SDS011;392;48.838;2.322;2023-01-01T06:58:28;7.53;;;4.03;;
819;SDS011;392;48.838;2.322;2023-01-01T07:01:03;4.77;;;3.93;;
819;SDS011;392;48.838;2.322;2023-01-01T07:03:31;6.60;;;3.90;;
819;SDS011;392;48.838;2.322;2023-01-01T07:06:00;7.13;;;3.57;;
819;SDS011;392;48.838;2.322;2023-01-01T07:08:27;6.00;;;3.80;;
819;SDS011;392;48.838;2.322;2023-01-01T07:10:54;5.37;;;3.70;;
819;SDS011;392;48.838;2.322;2023-01-01T07:13:22;4.60;;;3.50;;
819;SDS011;392;48.838;2.322;2023-01-01T07:15:50;5.20;;;3.50;;
819;SDS011;392;48.838;2.322;2023-01-01T07:18:18;6.20;;;3.73;;
819;SDS011;392;48.838;2.322;2023-01-01T07:20:47;6.20;;;3.50;;
819;SDS011;392;48.838;2.322;2023-01-01T07:23:17;5.93;;;3.53;;
819;SDS011;392;48.838;2.322;2023-01-01T07:25:44;5.50;;;3.50;;
819;SDS011;392;48.838;2.322;2023-01-01T07:28:14;6.50;;;3.80;;
819;SDS011;392;48.838;2.322;2023-01-01T07:30:41;6.70;;;3.87;;
819;SDS011;392;48.838;2.322;2023-01-01T07:33:09;5.07;;;3.40;;
819;SDS011;392;48.838;2.322;2023-01-01T07:35:39;4.97;;;3.57;;
819;SDS011;392;48.838;2.322;2023-01-01T07:38:09;4.10;;;3.00;;
819;SDS011;392;48.838;2.322;2023-01-01T07:40:36;3.93;;;3.10;;
819;SDS011;392;48.838;2.322;2023-01-01T07:43:04;5.00;;;3.93;;
819;SDS011;392;48.838;2.322;2023-01-01T07:45:32;4.43;;;4.03;;
819;SDS011;392;48.838;2.322;2023-01-01T07:48:00;6.70;;;3.80;;
819;SDS011;392;48.838;2.322;2023-01-01T07:50:29;3.33;;;3.00;;
819;SDS011;392;48.838;2.322;2023-01-01T07:52:59;4.23;;;3.43;;
819;SDS011;392;48.838;2.322;2023-01-01T07:55:26;4.73;;;3.80;;
819;SDS011;392;48.838;2.322;2023-01-01T07:57:54;9.30;;;3.80;;
819;SDS011;392;48.838;2.322;2023-01-01T08:00:21;4.60;;;3.20;;
819;SDS011;392;48.838;2.322;2023-01-01T08:02:49;4.53;;;3.30;;
819;SDS011;392;48.838;2.322;2023-01-01T08:05:17;5.27;;;3.83;;
819;SDS011;392;48.838;2.322;2023-01-01T08:07:45;6.37;;;3.43;;
819;SDS011;392;48.838;2.322;2023-01-01T08:10:15;6.03;;;3.67;;
819;SDS011;392;48.838;2.322;2023-01-01T08:12:44;8.20;;;3.90;;
819;SDS011;392;48.838;2.322;2023-01-01T08:15:13;8.50;;;4.00;;
819;SDS011;392;48.838;2.322;2023-01-01T08:17:41;5.63;;;3.30;;
819;SDS011;392;48.838;2.322;2023-01-01T08:20:08;5.57;;;4.13;;
819;SDS011;392;48.838;2.322;2023-01-01T08:22:36;4.80;;;3.33;;
819;SDS011;392;48.838;2.322;2023-01-01T08:25:03;7.53;;;3.73;;
819;SDS011;392;48.838;2.322;2023-01-01T08:27:33;7.07;;;3.60;;
819;SDS011;392;48.838;2.322;2023-01-01T08:30:00;4.67;;;3.50;;
819;SDS011;392;48.838;2.322;2023-01-01T08:32:28;8.80;;;3.73;;
819;SDS011;392;48.838;2.322;2023-01-01T08:34:55;7.97;;;3.10;;
819;SDS011;392;48.838;2.322;2023-01-01T08:37:22;5.90;;;3.57;;
819;SDS011;392;48.838;2.322;2023-01-01T08:39:52;4.33;;;3.53;;
819;SDS011;392;48.838;2.322;2023-01-01T08:42:19;6.17;;;3.23;;
819;SDS011;392;48.838;2.322;2023-01-01T08:44:48;4.57;;;3.33;;
819;SDS011;392;48.838;2.322;2023-01-01T08:47:19;6.00;;;3.57;;
819;SDS011;392;48.838;2.322;2023-01-01T08:49:49;6.97;;;3.87;;
819;SDS011;392;48.838;2.322;2023-01-01T08:52:16;5.40;;;3.70;;
819;SDS011;392;48.838;2.322;2023-01-01T08:54:44;7.40;;;4.73;;
819;SDS011;392;48.838;2.322;2023-01-01T08:57:12;5.67;;;3.63;;
819;SDS011;392;48.838;2.322;2023-01-01T08:59:39;5.80;;;4.20;;
819;SDS011;392;48.838;2.322;2023-01-01T09:02:08;4.23;;;3.70;;
819;SDS011;392;48.838;2.322;2023-01-01T09:04:37;6.43;;;3.93;;
819;SDS011;392;48.838;2.322;2023-01-01T09:07:04;5.90;;;4.03;;
819;SDS011;392;48.838;2.322;2023-01-01T09:09:31;6.10;;;4.30;;
819;SDS011;392;48.838;2.322;2023-01-01T09:11:59;5.17;;;3.77;;
819;SDS011;392;48.838;2.322;2023-01-01T09:14:30;5.40;;;3.80;;
819;SDS011;392;48.838;2.322;2023-01-01T09:16:58;7.97;;;4.30;;
819;SDS011;392;48.838;2.322;2023-01-01T09:19:27;5.30;;;4.00;;
819;SDS011;392;48.838;2.322;2023-01-01T09:21:54;6.90;;;3.90;;
819;SDS011;392;48.838;2.322;2023-01-01T09:24:22;6.57;;;4.00;;
819;SDS011;392;48.838;2.322;2023-01-01T09:26:50;8.20;;;3.60;;
819;SDS011;392;48.838;2.322;2023-01-01T09:29:17;4.80;;;4.27;;
819;SDS011;392;48.838;2.322;2023-01-01T09:31:45;5.07;;;3.57;;
819;SDS011;392;48.838;2.322;2023-01-01T09:34:13;6.00;;;3.30;;
819;SDS011;392;48.838;2.322;2023-01-01T09:36:43;6.80;;;3.73;;
819;SDS011;392;48.838;2.322;2023-01-01T09:39:12;6.83;;;3.87;;
819;SDS011;392;48.838;2.322;2023-01-01T09:41:47;5.20;;;3.77;;
819;SDS011;392;48.838;2.322;2023-01-01T09:44:42;7.37;;;3.90;;
819;SDS011;392;48.838;2.322;2023-01-01T09:47:22;5.80;;;3.37;;
819;SDS011;392;48.838;2.322;2023-01-01T09:49:55;5.97;;;3.60;;
819;SDS011;392;48.838;2.322;2023-01-01T09:52:30;8.00;;;4.03;;
819;SDS011;392;48.838;2.322;2023-01-01T09:55:10;9.10;;;3.80;;
819;SDS011;392;48.838;2.322;2023-01-01T09:57:44;6.83;;;3.53;;
819;SDS011;392;48.838;2.322;2023-01-01T10:00:13;5.10;;;3.60;;
819;SDS011;392;48.838;2.322;2023-01-01T10:02:46;6.23;;;3.80;;
819;SDS011;392;48.838;2.322;2023-01-01T10:05:33;9.20;;;4.03;;
819;SDS011;392;48.838;2.322;2023-01-01T10:08:16;8.70;;;3.90;;
819;SDS011;392;48.838;2.322;2023-01-01T10:10:55;6.80;;;3.90;;
819;SDS011;392;48.838;2.322;2023-01-01T10:13:31;6.83;;;4.27;;
819;SDS011;392;48.838;2.322;2023-01-01T10:16:07;5.43;;;4.10;;
819;SDS011;392;48.838;2.322;2023-01-01T10:18:39;4.50;;;3.60;;
819;SDS011;392;48.838;2.322;2023-01-01T10:21:09;4.40;;;3.60;;
819;SDS011;392;48.838;2.322;2023-01-01T10:23:43;6.30;;;3.87;;
819;SDS011;392;48.838;2.322;2023-01-01T10:26:15;5.23;;;3.90;;
819;SDS011;392;48.838;2.322;2023-01-01T10:28:48;7.53;;;4.50;;
819;SDS011;392;48.838;2.322;2023-01-01T10:31:27;7.10;;;4.27;;
819;SDS011;392;48.838;2.322;2023-01-01T10:34:00;8.03;;;3.90;;
819;SDS011;392;48.838;2.322;2023-01-01T10:36:38;6.33;;;3.80;;
819;SDS011;392;48.838;2.322;2023-01-01T10:39:07;6.20;;;4.03;;
819;SDS011;392;48.838;2.322;2023-01-01T10:41:37;7.97;;;4.03;;
819;SDS011;392;48.838;2.322;2023-01-01T10:44:04;5.90;;;3.63;;
819;SDS011;392;48.838;2.322;2023-01-01T10:46:32;8.73;;;4.17;;
819;SDS011;392;48.838;2.322;2023-01-01T10:49:03;5.33;;;3.93;;
819;SDS011;392;48.838;2.322;2023-01-01T10:51:36;6.70;;;4.10;;
819;SDS011;392;48.838;2.322;2023-01-01T10:54:17;7.67;;;4.00;;
819;SDS011;392;48.838;2.322;2023-01-01T10:56:58;7.53;;;4.33;;
819;SDS011;392;48.838;2.322;2023-01-01T10:59:34;7.20;;;4.17;;
819;SDS011;392;48.838;2.322;2023-01-01T11:02:13;7.80;;;4.50;;
819;SDS011;392;48.838;2.322;2023-01-01T11:04:45;8.13;;;4.03;;
819;SDS011;392;48.838;2.322;2023-01-01T11:07:16;4.97;;;4.47;;
819;SDS011;392;48.838;2.322;2023-01-01T11:09:52;5.20;;;3.70;;
819;SDS011;392;48.838;2.322;2023-01-01T11:12:26;9.27;;;4.13;;
819;SDS011;392;48.838;2.322;2023-01-01T11:14:59;7.60;;;4.10;;
819;SDS011;392;48.838;2.322;2023-01-01T11:17:26;6.17;;;3.93;;
819;SDS011;392;48.838;2.322;2023-01-01T11:19:57;5.07;;;3.87;;
819;SDS011;392;48.838;2.322;2023-01-01T11:25:23;4.63;;;3.30;;
819;SDS011;392;48.838;2.322;2023-01-01T11:28:12;5.27;;;3.50;;
819;SDS011;392;48.838;2.322;2023-01-01T11:30:56;6.23;;;3.77;;
819;SDS011;392;48.838;2.322;2023-01-01T11:33:31;7.60;;;4.30;;
819;SDS011;392;48.838;2.322;2023-01-01T11:36:02;7.20;;;4.57;;
819;SDS011;392;48.838;2.322;2023-01-01T11:38:32;6.27;;;5.63;;
819;SDS011;392;48.838;2.322;2023-01-01T11:41:02;7.63;;;4.90;;
819;SDS011;392;48.838;2.322;2023-01-01T11:43:33;7.10;;;4.63;;
819;SDS011;392;48.838;2.322;2023-01-01T11:46:06;8.40;;;4.77;;
819;SDS011;392;48.838;2.322;2023-01-01T11:48:38;7.57;;;4.70;;
819;SDS011;392;48.838;2.322;2023-01-01T11:51:08;5.40;;;4.50;;
819;SDS011;392;48.838;2.322;2023-01-01T11:53:53;5.67;;;4.60;;
819;SDS011;392;48.838;2.322;2023-01-01T11:56:38;6.70;;;4.83;;
819;SDS011;392;48.838;2.322;2023-01-01T11:59:10;6.00;;;5.00;;
819;SDS011;392;48.838;2.322;2023-01-01T12:01:42;7.13;;;5.07;;
819;SDS011;392;48.838;2.322;2023-01-01T12:04:15;7.67;;;5.03;;
819;SDS011;392;48.838;2.322;2023-01-01T12:06:46;5.40;;;4.30;;
819;SDS011;392;48.838;2.322;2023-01-01T12:09:21;6.00;;;5.20;;
819;SDS011;392;48.838;2.322;2023-01-01T12:11:55;5.10;;;4.60;;
819;SDS011;392;48.838;2.322;2023-01-01T12:14:31;11.37;;;5.17;;
819;SDS011;392;48.838;2.322;2023-01-01T12:17:09;6.40;;;4.83;;
819;SDS011;392;48.838;2.322;2023-01-01T12:19:46;6.00;;;4.57;;
819;SDS011;392;48.838;2.322;2023-01-01T12:22:24;5.83;;;4.83;;
819;SDS011;392;48.838;2.322;2023-01-01T12:24:51;6.23;;;4.77;;
819;SDS011;392;48.838;2.322;2023-01-01T12:27:25;7.43;;;6.10;;
819;SDS011;392;48.838;2.322;2023-01-01T12:30:20;6.77;;;5.00;;
819;SDS011;392;48.838;2.322;2023-01-01T12:33:02;8.80;;;5.80;;
819;SDS011;392;48.838;2.322;2023-01-01T12:35:51;7.30;;;4.97;;
819;SDS011;392;48.838;2.322;2023-01-01T12:38:36;7.90;;;5.77;;
819;SDS011;392;48.838;2.322;2023-01-01T12:41:35;5.30;;;4.80;;
819;SDS011;392;48.838;2.322;2023-01-01T12:44:13;6.50;;;5.87;;
819;SDS011;392;48.838;2.322;2023-01-01T12:46:48;6.97;;;5.93;;
819;SDS011;392;48.838;2.322;2023-01-01T12:49:27;10.73;;;6.10;;
819;SDS011;392;48.838;2.322;2023-01-01T12:52:12;8.37;;;5.80;;
819;SDS011;392;48.838;2.322;2023-01-01T12:55:02;7.77;;;5.50;;
819;SDS011;392;48.838;2.322;2023-01-01T12:57:56;5.70;;;4.93;;
819;SDS011;392;48.838;2.322;2023-01-01T13:00:32;6.63;;;5.70;;
819;SDS011;392;48.838;2.322;2023-01-01T13:03:04;8.53;;;6.00;;
819;SDS011;392;48.838;2.322;2023-01-01T13:05:38;7.13;;;5.57;;
819;SDS011;392;48.838;2.322;2023-01-01T13:08:08;10.13;;;5.70;;
819;SDS011;392;48.838;2.322;2023-01-01T13:10:36;7.40;;;6.60;;
819;SDS011;392;48.838;2.322;2023-01-01T13:13:06;7.30;;;5.63;;
819;SDS011;392;48.838;2.322;2023-01-01T13:15:47;6.20;;;5.60;;
819;SDS011;392;48.838;2.322;2023-01-01T13:18:24;8.33;;;5.70;;
819;SDS011;392;48.838;2.322;2023-01-01T13:21:02;7.90;;;6.30;;
819;SDS011;392;48.838;2.322;2023-01-01T13:23:42;7.23;;;6.53;;
819;SDS011;392;48.838;2.322;2023-01-01T13:26:33;9.10;;;6.03;;
819;SDS011;392;48.838;2.322;2023-01-01T13:32:09;9.67;;;6.57;;
819;SDS011;392;48.838;2.322;2023-01-01T13:37:41;7.83;;;6.07;;
819;SDS011;392;48.838;2.322;2023-01-01T13:40:30;7.60;;;6.80;;
819;SDS011;392;48.838;2.322;2023-01-01T13:43:18;11.40;;;8.83;;
819;SDS011;392;48.838;2.322;2023-01-01T13:45:53;10.80;;;6.53;;
819;SDS011;392;48.838;2.322;2023-01-01T13:51:56;8.90;;;7.00;;
819;SDS011;392;48.838;2.322;2023-01-01T13:58:23;9.37;;;7.27;;
819;SDS011;392;48.838;2.322;2023-01-01T14:04:28;8.57;;;7.50;;
819;SDS011;392;48.838;2.322;2023-01-01T14:07:05;11.73;;;7.93;;
819;SDS011;392;48.838;2.322;2023-01-01T14:09:42;8.43;;;7.33;;
819;SDS011;392;48.838;2.322;2023-01-01T14:12:13;9.40;;;7.07;;
819;SDS011;392;48.838;2.322;2023-01-01T14:14:43;18.83;;;9.23;;
819;SDS011;392;48.838;2.322;2023-01-01T14:17:11;9.33;;;7.43;;
819;SDS011;392;48.838;2.322;2023-01-01T14:19:42;9.10;;;8.20;;
819;SDS011;392;48.838;2.322;2023-01-01T14:22:10;9.83;;;7.23;;
819;SDS011;392;48.838;2.322;2023-01-01T14:24:42;10.63;;;8.50;;
819;SDS011;392;48.838;2.322;2023-01-01T14:27:14;9.60;;;8.37;;
819;SDS011;392;48.838;2.322;2023-01-01T14:29:45;10.17;;;8.43;;
819;SDS011;392;48.838;2.322;2023-01-01T14:32:20;9.50;;;8.50;;
819;SDS011;392;48.838;2.322;2023-01-01T14:34:58;11.50;;;9.43;;
819;SDS011;392;48.838;2.322;2023-01-01T14:37:26;12.33;;;9.10;;
819;SDS011;392;48.838;2.322;2023-01-01T14:40:04;14.40;;;9.00;;
819;SDS011;392;48.838;2.322;2023-01-01T14:42:35;8.50;;;7.70;;
819;SDS011;392;48.838;2.322;2023-01-01T14:45:04;12.10;;;9.60;;
819;SDS011;392;48.838;2.322;2023-01-01T14:47:33;9.40;;;8.40;;
819;SDS011;392;48.838;2.322;2023-01-01T14:50:03;12.70;;;8.70;;
819;SDS011;392;48.838;2.322;2023-01-01T14:52:48;9.67;;;8.37;;
819;SDS011;392;48.838;2.322;2023-01-01T14:55:20;13.60;;;8.57;;
819;SDS011;392;48.838;2.322;2023-01-01T14:57:49;11.30;;;9.03;;
819;SDS011;392;48.838;2.322;2023-01-01T15:00:23;9.47;;;8.40;;
819;SDS011;392;48.838;2.322;2023-01-01T15:02:53;10.67;;;8.90;;
819;SDS011;392;48.838;2.322;2023-01-01T15:05:29;11.97;;;9.50;;
819;SDS011;392;48.838;2.322;2023-01-01T15:07:59;11.20;;;8.80;;
819;SDS011;392;48.838;2.322;2023-01-01T15:10:29;10.93;;;9.80;;
819;SDS011;392;48.838;2.322;2023-01-01T15:13:03;10.63;;;9.53;;
819;SDS011;392;48.838;2.322;2023-01-01T15:15:36;11.60;;;10.50;;
819;SDS011;392;48.838;2.322;2023-01-01T15:21:11;11.03;;;8.30;;
819;SDS011;392;48.838;2.322;2023-01-01T15:23:45;10.23;;;9.13;;
819;SDS011;392;48.838;2.322;2023-01-01T15:26:23;13.67;;;9.90;;
819;SDS011;392;48.838;2.322;2023-01-01T15:28:54;12.13;;;9.07;;
819;SDS011;392;48.838;2.322;2023-01-01T15:31:23;11.33;;;10.17;;
819;SDS011;392;48.838;2.322;2023-01-01T15:34:01;10.50;;;9.30;;
819;SDS011;392;48.838;2.322;2023-01-01T15:36:31;12.33;;;10.17;;
819;SDS011;392;48.838;2.322;2023-01-01T15:38:58;11.80;;;10.43;;
819;SDS011;392;48.838;2.322;2023-01-01T15:41:36;12.50;;;9.70;;
819;SDS011;392;48.838;2.322;2023-01-01T15:44:15;13.13;;;11.83;;
819;SDS011;392;48.838;2.322;2023-01-01T15:46:47;11.30;;;9.70;;
819;SDS011;392;48.838;2.322;2023-01-01T15:49:23;11.30;;;10.10;;
819;SDS011;392;48.838;2.322;2023-01-01T15:51:55;16.30;;;14.70;;
819;SDS011;392;48.838;2.322;2023-01-01T15:54:25;10.63;;;9.63;;
819;SDS011;392;48.838;2.322;2023-01-01T15:56:53;12.23;;;10.47;;
819;SDS011;392;48.838;2.322;2023-01-01T15:59:24;16.50;;;12.17;;
819;SDS011;392;48.838;2.322;2023-01-01T16:02:01;13.47;;;10.60;;
819;SDS011;392;48.838;2.322;2023-01-01T16:04:38;11.40;;;9.90;;
819;SDS011;392;48.838;2.322;2023-01-01T16:07:15;14.03;;;10.67;;
819;SDS011;392;48.838;2.322;2023-01-01T16:09:45;11.97;;;9.47;;
819;SDS011;392;48.838;2.322;2023-01-01T16:12:13;10.70;;;9.60;;
819;SDS011;392;48.838;2.322;2023-01-01T16:14:40;15.70;;;11.17;;
819;SDS011;392;48.838;2.322;2023-01-01T16:17:08;12.10;;;9.60;;
819;SDS011;392;48.838;2.322;2023-01-01T16:19:40;12.10;;;9.43;;
819;SDS011;392;48.838;2.322;2023-01-01T16:22:10;13.80;;;9.93;;
819;SDS011;392;48.838;2.322;2023-01-01T16:24:41;11.47;;;8.80;;
819;SDS011;392;48.838;2.322;2023-01-01T16:27:10;11.83;;;9.63;;
819;SDS011;392;48.838;2.322;2023-01-01T16:29:38;9.57;;;8.40;;
819;SDS011;392;48.838;2.322;2023-01-01T16:32:05;11.50;;;9.27;;
819;SDS011;392;48.838;2.322;2023-01-01T16:34:37;10.37;;;9.00;;
819;SDS011;392;48.838;2.322;2023-01-01T16:37:04;20.70;;;18.50;;